Aviation Digital Data Service (ADDS)

Output produced by METARs form (1930 UTC 25 May 2015)
found at http://aviationweather.gov/adds/metars/
 
KRUT 251720Z 2518/2618 17005KT P6SM OVC090 
     FM260100 15006KT P6SM VCSH BKN045 OVC070 
     FM261400 24006KT P6SM SCT070 BKN130 AMD LTD TO CLD VIS AND WIND